N22EG KASE-KMTJ
Flight info
| Callsign | N22EG |
|---|---|
| Flight time | N/A |
| Altitude | 16000 |
| Route | SARDD3 LINDZ DIRDY |
| Aircraft | S22T/L-SDGRY/S |
Departure
| Time | 2026-04-23 02:53 |
|---|---|
| Airport | Aspen-Pitkin County Airport (Sardy Field) (KASE) |
Arrival
| Time | N/A |
|---|---|
| Airport | Montrose Regional Airport (KMTJ) |
| Time | Latitude | Longitude | Altitude | Speed | Heading |
|---|---|---|---|---|---|
| 2026-04-23 02:30 | 39.22772 | -106.86948 | 7737 ft | 0 kts | 244° |
| 2026-04-23 02:46 | 39.22726 | -106.86958 | 7739 ft | 13 kts | 162° |
| 2026-04-23 02:46 | 39.22608 | -106.86902 | 7749 ft | 19 kts | 165° |
| 2026-04-23 02:46 | 39.22501 | -106.86846 | 7757 ft | 16 kts | 163° |
| 2026-04-23 02:47 | 39.22398 | -106.86784 | 7766 ft | 19 kts | 163° |
| 2026-04-23 02:47 | 39.22280 | -106.86746 | 7776 ft | 16 kts | 160° |
| 2026-04-23 02:47 | 39.22169 | -106.86683 | 7786 ft | 17 kts | 153° |
| 2026-04-23 02:47 | 39.22058 | -106.86639 | 7797 ft | 14 kts | 165° |
| 2026-04-23 02:48 | 39.21988 | -106.86604 | 7803 ft | 10 kts | 161° |
| 2026-04-23 02:48 | 39.21921 | -106.86568 | 7809 ft | 13 kts | 160° |
| 2026-04-23 02:48 | 39.21834 | -106.86532 | 7816 ft | 12 kts | 160° |
| 2026-04-23 02:48 | 39.21745 | -106.86488 | 7824 ft | 14 kts | 158° |
| 2026-04-23 02:49 | 39.21624 | -106.86430 | 7832 ft | 21 kts | 159° |
| 2026-04-23 02:49 | 39.21471 | -106.86346 | 7841 ft | 21 kts | 157° |
| 2026-04-23 02:49 | 39.21371 | -106.86313 | 7848 ft | 8 kts | 156° |
| 2026-04-23 02:49 | 39.21352 | -106.86304 | 7849 ft | 0 kts | 141° |
| 2026-04-23 02:50 | 39.21352 | -106.86303 | 7849 ft | 0 kts | 162° |
| 2026-04-23 02:50 | 39.21346 | -106.86299 | 7850 ft | 5 kts | 157° |
| 2026-04-23 02:51 | 39.21259 | -106.86263 | 7854 ft | 11 kts | 168° |
| 2026-04-23 02:51 | 39.21231 | -106.86254 | 7855 ft | 0 kts | 168° |
| 2026-04-23 02:51 | 39.21191 | -106.86263 | 7857 ft | 13 kts | 220° |
| 2026-04-23 02:51 | 39.21241 | -106.86382 | 7859 ft | 35 kts | 336° |
| 2026-04-23 02:52 | 39.21700 | -106.86581 | 7830 ft | 99 kts | 340° |
| 2026-04-23 02:52 | 39.22479 | -106.86843 | 8021 ft | 116 kts | 335° |
| 2026-04-23 02:52 | 39.23256 | -106.87246 | 8166 ft | 131 kts | 322° |
| 2026-04-23 02:52 | 39.24200 | -106.87743 | 8149 ft | 155 kts | 333° |
| 2026-04-23 02:53 | 39.25213 | -106.88254 | 8361 ft | 158 kts | 331° |
| 2026-04-23 02:53 | 39.26348 | -106.88586 | 8522 ft | 167 kts | 354° |
| 2026-04-23 02:53 | 39.27499 | -106.88668 | 8733 ft | 168 kts | 354° |
| 2026-04-23 02:53 | 39.28683 | -106.88753 | 8953 ft | 171 kts | 349° |
| 2026-04-23 02:54 | 39.29871 | -106.88823 | 9180 ft | 169 kts | 352° |
| 2026-04-23 02:54 | 39.31036 | -106.89049 | 9391 ft | 163 kts | 329° |
| 2026-04-23 02:54 | 39.31727 | -106.90080 | 9639 ft | 150 kts | 281° |
| 2026-04-23 02:54 | 39.32041 | -106.91366 | 9826 ft | 152 kts | 281° |
| 2026-04-23 02:55 | 39.32321 | -106.92678 | 10071 ft | 153 kts | 281° |
| 2026-04-23 02:55 | 39.32637 | -106.94062 | 10280 ft | 156 kts | 281° |
| 2026-04-23 02:55 | 39.32945 | -106.95388 | 10488 ft | 152 kts | 282° |
| 2026-04-23 02:55 | 39.33200 | -106.96706 | 10673 ft | 153 kts | 280° |
| 2026-04-23 02:56 | 39.33497 | -106.98030 | 10861 ft | 153 kts | 279° |
| 2026-04-23 02:56 | 39.33781 | -106.99171 | 11025 ft | 156 kts | 281° |
| 2026-04-23 02:57 | 39.33879 | -106.99506 | 11076 ft | 156 kts | 282° |
| 2026-04-23 02:57 | 39.34252 | -107.00834 | 11274 ft | 155 kts | 282° |
| 2026-04-23 02:58 | 39.34578 | -107.02151 | 11463 ft | 156 kts | 284° |
| 2026-04-23 02:58 | 39.34906 | -107.03494 | 11677 ft | 153 kts | 282° |
| 2026-04-23 02:58 | 39.35213 | -107.04820 | 11860 ft | 154 kts | 280° |
| 2026-04-23 02:58 | 39.35558 | -107.06126 | 12051 ft | 154 kts | 282° |
| 2026-04-23 02:59 | 39.35922 | -107.07458 | 12248 ft | 154 kts | 281° |
| 2026-04-23 02:59 | 39.36243 | -107.08787 | 12448 ft | 152 kts | 282° |
| 2026-04-23 02:59 | 39.36573 | -107.10110 | 12642 ft | 152 kts | 282° |
| 2026-04-23 02:59 | 39.36901 | -107.11403 | 12827 ft | 151 kts | 282° |
| 2026-04-23 03:00 | 39.37223 | -107.12689 | 13018 ft | 152 kts | 283° |
| 2026-04-23 03:00 | 39.37899 | -107.13812 | 13203 ft | 157 kts | 296° |
| 2026-04-23 03:00 | 39.37971 | -107.15125 | 13386 ft | 144 kts | 246° |
| 2026-04-23 03:00 | 39.37517 | -107.16251 | 13579 ft | 142 kts | 242° |
| 2026-04-23 03:01 | 39.36945 | -107.17293 | 13762 ft | 143 kts | 231° |
| 2026-04-23 03:01 | 39.36203 | -107.18177 | 13952 ft | 144 kts | 223° |
| 2026-04-23 03:01 | 39.35354 | -107.18984 | 14151 ft | 145 kts | 219° |
| 2026-04-23 03:01 | 39.34522 | -107.19697 | 14342 ft | 144 kts | 218° |
| 2026-04-23 03:02 | 39.33673 | -107.20380 | 14535 ft | 144 kts | 217° |
| 2026-04-23 03:02 | 39.32814 | -107.21057 | 14726 ft | 144 kts | 216° |
| 2026-04-23 03:02 | 39.31940 | -107.21738 | 14924 ft | 143 kts | 216° |
| 2026-04-23 03:02 | 39.31086 | -107.22397 | 15119 ft | 143 kts | 217° |
| 2026-04-23 03:03 | 39.30485 | -107.22861 | 15254 ft | 142 kts | 216° |